Time;durP1;ratioP1;P1;durP2;ratioP2;P2;SDS_P1;SDS_P2;PMS_P1;PMS_P2;Temp;Humidity;BMP_temperature;BMP_pressure;BME280_temperature;BME280_humidity;BME280_pressure;Samples;Min_cycle;Max_cycle;Signal;HPM_P1;HPM_P2
2021/07/19 00:01:24;;;;;;;6.50;3.08;;;19.20;99.90;;;;;;5090655;28;20256;-57
2021/07/19 00:03:51;;;;;;;5.43;2.75;;;19.20;99.90;;;;;;5090703;28;20197;-59
2021/07/19 00:06:18;;;;;;;4.15;2.83;;;19.20;99.90;;;;;;5090900;28;20242;-58
2021/07/19 00:08:45;;;;;;;4.68;2.92;;;19.10;99.90;;;;;;5090860;28;20307;-57
2021/07/19 00:11:13;;;;;;;5.70;2.95;;;19.10;99.90;;;;;;5092105;28;20715;-58
2021/07/19 00:13:40;;;;;;;3.15;2.85;;;19.10;99.90;;;;;;5094290;28;20220;-58
2021/07/19 00:16:08;;;;;;;4.15;2.83;;;19.10;99.90;;;;;;5094556;28;20209;-57
2021/07/19 00:18:35;;;;;;;4.82;2.67;;;19.00;99.90;;;;;;5094623;28;20212;-57
2021/07/19 00:21:03;;;;;;;4.85;2.67;;;19.00;99.90;;;;;;5094384;28;20656;-56
2021/07/19 00:23:29;;;;;;;3.95;2.58;;;18.90;99.90;;;;;;5094155;28;20258;-57
2021/07/19 00:25:56;;;;;;;4.68;2.70;;;18.90;99.90;;;;;;5094725;28;20208;-58
2021/07/19 00:28:23;;;;;;;3.42;2.60;;;18.90;99.90;;;;;;5094048;28;20500;-57
2021/07/19 00:30:50;;;;;;;2.70;2.50;;;18.90;99.90;;;;;;5094050;28;20293;-57
2021/07/19 00:33:18;;;;;;;5.00;2.70;;;18.90;99.90;;;;;;5094070;28;20208;-57
2021/07/19 00:35:45;;;;;;;3.13;2.78;;;18.90;99.90;;;;;;5094025;28;20257;-57
2021/07/19 00:38:12;;;;;;;3.17;2.88;;;18.90;99.90;;;;;;5093736;28;20207;-59
2021/07/19 00:40:39;;;;;;;8.77;3.00;;;18.90;99.90;;;;;;5093748;28;20231;-58
2021/07/19 00:43:06;;;;;;;4.32;2.70;;;18.90;99.90;;;;;;5093747;28;20261;-57
2021/07/19 00:45:33;;;;;;;4.70;2.70;;;18.80;99.90;;;;;;5093659;28;20563;-56
2021/07/19 00:48:03;;;;;;;3.30;2.90;;;18.80;99.90;;;;;;5093866;28;20588;-58
2021/07/19 00:50:34;;;;;;;4.13;2.83;;;18.80;99.90;;;;;;5093672;28;20574;-56
2021/07/19 00:53:01;;;;;;;5.15;2.60;;;18.80;99.90;;;;;;5093616;28;20220;-58
2021/07/19 00:55:32;;;;;;;7.32;2.75;;;18.80;99.90;;;;;;5093368;28;20719;-58
2021/07/19 00:58:01;;;;;;;6.40;2.75;;;18.70;99.90;;;;;;5093125;28;20211;-59
2021/07/19 01:00:29;;;;;;;4.80;2.88;;;18.70;99.90;;;;;;5093558;28;20711;-57
2021/07/19 01:02:56;;;;;;;3.30;3.00;;;18.70;99.90;;;;;;5093707;28;20253;-58
2021/07/19 01:05:25;;;;;;;7.43;3.08;;;18.70;99.90;;;;;;5093667;28;20204;-57
2021/07/19 01:07:54;;;;;;;5.20;3.05;;;18.70;99.90;;;;;;5093627;28;20252;-59
2021/07/19 01:10:22;;;;;;;4.30;3.00;;;18.70;99.90;;;;;;5093319;28;20484;-56
2021/07/19 01:12:52;;;;;;;5.82;2.92;;;18.70;99.90;;;;;;5093382;28;20261;-57
2021/07/19 01:15:20;;;;;;;5.32;2.85;;;18.70;99.90;;;;;;5093002;28;20281;-57
2021/07/19 01:17:47;;;;;;;8.65;3.00;;;18.60;99.90;;;;;;5092994;28;20604;-57
2021/07/19 01:20:15;;;;;;;4.10;2.88;;;18.60;99.90;;;;;;5092972;28;20232;-57
2021/07/19 01:23:08;;;;;;;4.10;3.00;;;18.50;99.90;;;;;;5092500;28;20609;-58
2021/07/19 01:25:50;;;;;;;4.80;2.70;;;18.40;99.90;;;;;;5092703;28;20208;-57
2021/07/19 01:28:32;;;;;;;3.17;2.70;;;18.40;99.90;;;;;;5093216;28;20622;-57
2021/07/19 01:31:03;;;;;;;4.95;2.90;;;18.40;99.90;;;;;;5092717;28;20621;-58
2021/07/19 01:33:32;;;;;;;3.17;2.63;;;18.30;99.90;;;;;;5092578;28;20254;-57
2021/07/19 01:36:01;;;;;;;3.33;2.72;;;18.20;99.90;;;;;;5092893;28;20201;-57
2021/07/19 01:38:29;;;;;;;3.00;2.47;;;18.20;99.90;;;;;;5092539;28;20590;-57
2021/07/19 01:40:57;;;;;;;5.13;2.60;;;18.10;99.90;;;;;;5092934;28;20293;-58
2021/07/19 01:43:27;;;;;;;4.82;2.70;;;18.10;99.90;;;;;;5092396;28;20262;-58
2021/07/19 01:45:54;;;;;;;3.60;3.03;;;18.10;99.90;;;;;;5092397;28;20196;-57
2021/07/19 01:48:22;;;;;;;4.30;3.35;;;18.10;99.90;;;;;;5092473;28;20212;-56
2021/07/19 01:50:49;;;;;;;5.90;3.72;;;18.00;99.90;;;;;;5092383;28;20269;-57
2021/07/19 01:53:17;;;;;;;6.40;3.70;;;18.00;99.90;;;;;;5092395;28;20208;-58
2021/07/19 01:55:45;;;;;;;7.18;3.58;;;17.90;99.90;;;;;;5092023;28;20224;-57
2021/07/19 01:58:13;;;;;;;5.87;3.27;;;17.90;99.90;;;;;;5092112;28;20672;-56
2021/07/19 02:00:41;;;;;;;4.25;3.05;;;17.90;99.90;;;;;;5091948;28;20600;-56
2021/07/19 02:03:08;;;;;;;3.80;3.00;;;17.90;99.90;;;;;;5092207;28;20261;-58
2021/07/19 02:05:35;;;;;;;5.90;2.90;;;17.90;99.90;;;;;;5092103;28;20215;-57
2021/07/19 02:08:03;;;;;;;4.30;2.83;;;17.90;99.90;;;;;;5092237;28;20208;-58
2021/07/19 02:10:31;;;;;;;5.70;3.10;;;17.90;99.90;;;;;;5092261;28;20780;-56
2021/07/19 02:12:58;;;;;;;6.68;3.30;;;17.90;99.90;;;;;;5092016;28;20208;-57
2021/07/19 02:15:26;;;;;;;7.57;3.38;;;17.80;99.90;;;;;;5091920;28;20227;-56
2021/07/19 02:17:57;;;;;;;6.35;3.25;;;17.80;99.90;;;;;;5091796;28;20672;-57
2021/07/19 02:20:25;;;;;;;4.67;3.00;;;17.80;99.90;;;;;;5091812;28;20228;-56
2021/07/19 02:22:52;;;;;;;5.70;3.07;;;17.80;99.90;;;;;;5091717;28;20211;-57
2021/07/19 02:25:21;;;;;;;5.67;2.80;;;17.70;99.90;;;;;;5091477;28;20207;-57
2021/07/19 02:27:51;;;;;;;4.07;2.80;;;17.70;99.90;;;;;;5091803;28;20349;-57
2021/07/19 02:30:21;;;;;;;5.75;3.20;;;17.60;99.90;;;;;;5091370;28;20588;-56
2021/07/19 02:32:50;;;;;;;3.30;2.95;;;17.60;99.90;;;;;;5091228;28;20262;-56
2021/07/19 02:35:18;;;;;;;4.28;2.80;;;17.60;99.90;;;;;;5091018;28;20315;-57
2021/07/19 02:37:47;;;;;;;5.47;3.10;;;17.60;99.90;;;;;;5091771;28;20528;-56
2021/07/19 02:40:17;;;;;;;5.95;2.58;;;17.50;99.90;;;;;;5091421;28;20251;-56
2021/07/19 02:42:47;;;;;;;3.90;2.83;;;17.50;99.90;;;;;;5091651;28;20208;-57
2021/07/19 02:45:16;;;;;;;4.78;3.10;;;17.40;99.90;;;;;;5091608;28;20204;-56
2021/07/19 02:47:44;;;;;;;3.70;2.77;;;17.40;99.90;;;;;;5091447;28;20691;-56
2021/07/19 02:50:13;;;;;;;3.43;2.70;;;17.40;99.90;;;;;;5091181;28;20227;-57
2021/07/19 02:52:44;;;;;;;6.65;2.92;;;17.40;99.90;;;;;;5091135;28;20253;-56
2021/07/19 02:55:13;;;;;;;4.90;3.20;;;17.30;99.90;;;;;;5091155;28;20760;-56
2021/07/19 02:57:40;;;;;;;4.00;2.80;;;17.30;99.90;;;;;;5091381;28;20208;-56
2021/07/19 03:00:09;;;;;;;4.63;3.10;;;17.20;99.90;;;;;;5091601;28;20638;-56
2021/07/19 03:02:40;;;;;;;3.55;3.08;;;17.20;99.90;;;;;;5091262;28;20741;-58
2021/07/19 03:05:10;;;;;;;4.68;3.03;;;17.10;99.90;;;;;;5091058;28;20204;-56
2021/07/19 03:07:38;;;;;;;6.17;2.80;;;17.10;99.90;;;;;;5091305;28;20609;-56
2021/07/19 03:10:09;;;;;;;3.00;2.77;;;17.10;99.90;;;;;;5091023;28;20227;-57
2021/07/19 03:12:38;;;;;;;5.10;3.10;;;17.20;99.90;;;;;;5091143;28;20315;-58
2021/07/19 03:15:06;;;;;;;5.47;3.20;;;17.20;99.90;;;;;;5090765;28;20277;-57
2021/07/19 03:17:35;;;;;;;8.03;3.47;;;17.20;99.90;;;;;;5090755;28;20602;-57
2021/07/19 03:20:04;;;;;;;3.90;3.33;;;17.20;99.90;;;;;;5090821;28;20224;-57
2021/07/19 03:22:31;;;;;;;6.97;2.80;;;17.10;99.90;;;;;;5091105;28;20204;-56
2021/07/19 03:25:00;;;;;;;5.03;2.90;;;17.10;99.90;;;;;;5090689;28;20702;-57
2021/07/19 03:27:28;;;;;;;6.00;3.13;;;17.10;99.90;;;;;;5090898;28;20287;-56
2021/07/19 03:29:56;;;;;;;6.20;3.20;;;17.10;99.90;;;;;;5091371;28;20651;-57
2021/07/19 03:32:24;;;;;;;5.30;3.20;;;17.10;99.90;;;;;;5091588;28;20672;-57
2021/07/19 03:34:52;;;;;;;6.37;2.97;;;17.10;99.90;;;;;;5091316;28;20220;-57
2021/07/19 03:37:21;;;;;;;3.60;3.10;;;17.00;99.90;;;;;;5090765;28;20672;-57
2021/07/19 03:39:48;;;;;;;6.50;3.40;;;17.00;99.90;;;;;;5090507;28;20649;-58
2021/07/19 03:42:16;;;;;;;7.27;3.33;;;17.00;99.90;;;;;;5091062;28;20212;-56
2021/07/19 03:44:45;;;;;;;4.87;3.43;;;16.90;99.90;;;;;;5091606;28;20619;-56
2021/07/19 03:47:14;;;;;;;8.50;3.70;;;16.90;99.90;;;;;;5095480;28;20199;-58
2021/07/19 03:49:41;;;;;;;6.83;3.40;;;16.90;99.90;;;;;;5094995;28;20223;-57
2021/07/19 03:52:09;;;;;;;5.77;3.33;;;16.90;99.90;;;;;;5095143;28;20313;-58
2021/07/19 03:54:36;;;;;;;5.93;3.60;;;16.90;99.90;;;;;;5094521;28;20212;-56
2021/07/19 03:57:03;;;;;;;5.30;3.77;;;16.90;99.90;;;;;;5094717;28;20200;-58
2021/07/19 03:59:32;;;;;;;6.17;3.50;;;16.90;99.90;;;;;;5094409;28;20208;-56
2021/07/19 04:02:06;;;;;;;4.53;3.53;;;17.00;99.90;;;;;;5094821;28;20591;-57
2021/07/19 04:04:39;;;;;;;6.93;3.23;;;17.00;99.90;;;;;;5094352;28;20230;-58
2021/07/19 04:07:07;;;;;;;7.77;3.80;;;17.10;99.90;;;;;;5094650;28;20204;-56
2021/07/19 04:09:34;;;;;;;6.20;3.20;;;17.10;99.90;;;;;;5094429;28;20227;-56
2021/07/19 04:12:01;;;;;;;5.90;3.50;;;17.10;99.90;;;;;;5094358;28;20632;-58
2021/07/19 04:14:30;;;;;;;5.37;3.33;;;17.20;99.90;;;;;;5094583;28;20207;-56
2021/07/19 04:16:57;;;;;;;3.40;3.07;;;17.20;99.90;;;;;;5094508;28;20204;-57
2021/07/19 04:19:26;;;;;;;3.87;3.17;;;17.30;99.90;;;;;;5095080;28;20203;-57
2021/07/19 04:21:53;;;;;;;7.17;3.70;;;17.30;99.90;;;;;;5095484;28;20601;-57
2021/07/19 04:24:20;;;;;;;6.40;3.40;;;17.40;99.90;;;;;;5093781;28;20568;-57
2021/07/19 04:26:47;;;;;;;4.78;3.50;;;17.40;99.90;;;;;;5094052;28;20200;-58
2021/07/19 04:29:13;;;;;;;4.63;3.40;;;17.50;99.90;;;;;;5093795;28;20671;-57
2021/07/19 04:31:40;;;;;;;3.60;3.30;;;17.60;99.90;;;;;;5094070;28;20212;-57
2021/07/19 04:34:07;;;;;;;3.60;3.30;;;17.70;99.90;;;;;;5093819;28;20200;-58
2021/07/19 04:36:35;;;;;;;7.88;3.10;;;17.80;99.90;;;;;;5093803;28;20228;-56
2021/07/19 04:39:03;;;;;;;5.30;3.20;;;17.80;99.90;;;;;;5093812;28;20204;-56
2021/07/19 04:41:30;;;;;;;4.80;3.65;;;17.90;99.90;;;;;;5093989;28;20224;-57
2021/07/19 04:43:57;;;;;;;8.15;4.35;;;18.10;99.90;;;;;;5093703;28;20216;-56
2021/07/19 04:46:23;;;;;;;6.28;3.95;;;18.30;99.90;;;;;;5093706;28;20204;-56
2021/07/19 04:48:50;;;;;;;4.72;3.58;;;18.50;99.90;;;;;;5093658;28;20281;-56
2021/07/19 04:51:17;;;;;;;4.50;3.40;;;18.60;99.90;;;;;;5093423;28;20231;-58
2021/07/19 04:53:48;;;;;;;5.13;3.60;;;18.80;99.90;;;;;;5093682;28;20204;-57
2021/07/19 04:56:18;;;;;;;4.90;3.30;;;19.10;99.90;;;;;;5092740;28;20311;-56
2021/07/19 04:58:46;;;;;;;5.28;3.10;;;19.30;99.90;;;;;;5093467;28;20569;-58
2021/07/19 05:01:14;;;;;;;8.32;3.17;;;19.50;99.90;;;;;;5093303;28;20224;-56
2021/07/19 05:03:46;;;;;;;5.07;3.33;;;19.70;99.90;;;;;;5093473;28;20576;-56
2021/07/19 05:06:14;;;;;;;5.38;2.90;;;20.00;99.90;;;;;;5093764;28;20205;-58
2021/07/19 05:08:48;;;;;;;3.20;2.90;;;20.10;99.90;;;;;;5093409;28;20208;-59
2021/07/19 05:11:15;;;;;;;5.50;3.17;;;20.30;99.90;;;;;;5093655;28;20319;-59
2021/07/19 05:13:42;;;;;;;3.97;3.10;;;20.40;99.90;;;;;;5093144;28;20204;-58
2021/07/19 05:16:11;;;;;;;4.40;3.42;;;20.50;99.90;;;;;;5093111;28;20220;-59
2021/07/19 05:18:38;;;;;;;8.38;3.50;;;20.60;99.90;;;;;;5092954;28;20275;-58
2021/07/19 05:21:06;;;;;;;5.78;3.63;;;20.80;99.90;;;;;;5093382;28;20255;-59
2021/07/19 05:23:32;;;;;;;5.72;3.30;;;20.90;99.90;;;;;;5093059;28;20261;-59
2021/07/19 05:26:00;;;;;;;4.63;3.05;;;21.10;99.90;;;;;;5093438;28;20197;-59
2021/07/19 05:28:27;;;;;;;5.40;3.22;;;21.30;99.90;;;;;;5092907;28;20208;-59
2021/07/19 05:30:54;;;;;;;6.97;3.10;;;21.40;99.90;;;;;;5092833;28;20285;-58
2021/07/19 05:33:22;;;;;;;5.53;3.40;;;21.60;99.90;;;;;;5093093;28;20337;-59
2021/07/19 05:35:49;;;;;;;5.65;3.47;;;21.80;99.90;;;;;;5092942;28;20224;-57
2021/07/19 05:38:16;;;;;;;7.70;3.90;;;22.10;99.90;;;;;;5092702;28;20627;-57
2021/07/19 05:40:44;;;;;;;3.97;3.40;;;22.30;99.90;;;;;;5092564;28;20232;-56
2021/07/19 05:43:12;;;;;;;5.50;3.20;;;22.60;99.90;;;;;;5092614;28;20539;-57
2021/07/19 05:45:38;;;;;;;3.50;3.20;;;22.80;99.90;;;;;;5092474;28;20660;-56
2021/07/19 05:48:06;;;;;;;4.35;3.30;;;23.00;99.90;;;;;;5092059;28;20669;-56
2021/07/19 05:50:33;;;;;;;6.97;3.05;;;23.40;99.90;;;;;;5092387;28;20225;-56
2021/07/19 05:53:00;;;;;;;8.02;3.15;;;23.80;99.90;;;;;;5092312;28;20204;-56
2021/07/19 05:55:27;;;;;;;5.95;3.22;;;24.20;99.90;;;;;;5092037;28;20297;-57
2021/07/19 05:57:54;;;;;;;5.22;2.92;;;25.40;99.90;;;;;;5092128;28;20216;-58
2021/07/19 06:00:22;;;;;;;5.75;2.80;;;27.20;99.90;;;;;;5092138;28;20738;-57
2021/07/19 06:02:48;;;;;;;7.38;5.20;;;28.80;99.90;;;;;;5092079;28;20204;-57
2021/07/19 06:05:15;;;;;;;6.55;2.80;;;30.10;99.90;;;;;;5092026;28;20212;-56
2021/07/19 06:07:42;;;;;;;5.50;2.70;;;31.60;99.90;;;;;;5092065;28;20212;-57
2021/07/19 06:10:11;;;;;;;3.75;2.70;;;32.90;99.10;;;;;;5092077;28;20235;-57
2021/07/19 06:12:38;;;;;;;3.55;3.00;;;33.70;94.60;;;;;;5091938;28;20261;-55
2021/07/19 06:15:06;;;;;;;6.25;3.17;;;34.40;92.30;;;;;;5092023;28;20204;-58
2021/07/19 06:17:36;;;;;;;6.80;2.78;;;35.30;90.30;;;;;;5092188;28;20216;-57
2021/07/19 06:20:07;;;;;;;6.05;2.78;;;36.10;81.80;;;;;;5092043;28;20314;-57
2021/07/19 06:22:34;;;;;;;5.30;2.80;;;36.70;78.30;;;;;;5091989;28;20754;-56
2021/07/19 06:25:01;;;;;;;5.18;3.28;;;37.20;74.50;;;;;;5091582;28;20623;-56
2021/07/19 06:27:27;;;;;;;3.35;2.75;;;38.00;71.50;;;;;;5092348;28;20207;-56
2021/07/19 06:29:54;;;;;;;7.60;2.83;;;38.80;68.30;;;;;;5092162;28;20232;-56
2021/07/19 06:32:21;;;;;;;4.53;2.75;;;39.30;62.60;;;;;;5092256;28;20206;-57
2021/07/19 06:34:49;;;;;;;2.92;2.60;;;39.60;62.70;;;;;;5091803;28;20260;-58
2021/07/19 06:37:15;;;;;;;4.57;2.85;;;39.40;59.50;;;;;;5091825;28;20227;-57
2021/07/19 06:39:42;;;;;;;4.72;3.10;;;38.80;62.20;;;;;;5091433;28;20274;-57
2021/07/19 06:42:09;;;;;;;6.63;2.90;;;39.00;59.40;;;;;;5091982;28;20208;-55
2021/07/19 06:44:35;;;;;;;9.68;3.13;;;38.50;61.00;;;;;;5091507;28;20211;-59
2021/07/19 06:47:02;;;;;;;5.75;2.72;;;38.30;62.70;;;;;;5092012;28;20209;-54
2021/07/19 06:49:29;;;;;;;6.82;3.15;;;38.80;60.30;;;;;;5091470;28;20208;-55
2021/07/19 06:51:57;;;;;;;4.55;2.70;;;39.30;59.90;;;;;;5091387;28;20265;-55
2021/07/19 06:54:23;;;;;;;4.00;2.58;;;40.00;58.70;;;;;;5091110;28;20208;-56
2021/07/19 06:56:50;;;;;;;3.83;2.47;;;40.70;57.90;;;;;;5091949;28;20235;-56
2021/07/19 06:59:17;;;;;;;8.82;2.90;;;41.30;55.40;;;;;;5091391;28;20204;-54
2021/07/19 07:01:43;;;;;;;8.98;2.53;;;41.50;55.20;;;;;;5091372;28;20698;-57
2021/07/19 07:04:10;;;;;;;5.40;2.50;;;42.00;53.30;;;;;;5091152;28;20207;-56
2021/07/19 07:06:37;;;;;;;3.20;2.50;;;42.50;51.80;;;;;;5091145;28;20614;-54
2021/07/19 07:09:06;;;;;;;3.33;2.15;;;42.80;51.10;;;;;;5090783;28;20211;-56
2021/07/19 07:11:32;;;;;;;3.88;2.38;;;42.70;50.30;;;;;;5091308;28;20307;-55
2021/07/19 07:13:59;;;;;;;5.65;2.42;;;42.20;50.70;;;;;;5091372;28;20208;-56
2021/07/19 07:16:26;;;;;;;2.60;2.10;;;42.00;50.40;;;;;;5091506;28;20223;-56
2021/07/19 07:18:53;;;;;;;3.33;2.25;;;41.80;51.70;;;;;;5090536;28;20211;-57
2021/07/19 07:21:19;;;;;;;3.85;2.40;;;42.40;51.40;;;;;;5090393;28;20497;-57
2021/07/19 07:23:46;;;;;;;5.00;2.42;;;43.20;50.20;;;;;;5090974;28;20207;-55
2021/07/19 07:26:14;;;;;;;3.25;2.20;;;43.90;48.60;;;;;;5090956;28;20206;-56
2021/07/19 07:28:41;;;;;;;2.95;2.00;;;44.30;47.40;;;;;;5090870;28;20215;-55
2021/07/19 07:31:09;;;;;;;4.13;2.40;;;44.00;47.30;;;;;;5090656;28;20234;-56
2021/07/19 07:33:36;;;;;;;3.83;2.00;;;44.00;47.40;;;;;;5090715;28;20660;-56
2021/07/19 07:36:03;;;;;;;5.00;2.38;;;44.20;45.80;;;;;;5090653;28;20223;-55
2021/07/19 07:38:30;;;;;;;4.97;2.40;;;43.00;47.40;;;;;;5090719;28;20634;-58
2021/07/19 07:40:58;;;;;;;3.00;2.08;;;42.20;47.90;;;;;;5090936;28;20227;-57
2021/07/19 07:43:27;;;;;;;4.45;2.30;;;41.40;49.30;;;;;;5090669;28;20235;-57
2021/07/19 07:45:54;;;;;;;5.55;2.25;;;41.10;49.80;;;;;;5090755;28;20200;-57
2021/07/19 07:48:20;;;;;;;4.40;2.58;;;41.50;49.30;;;;;;5090446;28;20207;-57
2021/07/19 07:50:47;;;;;;;3.50;2.58;;;42.30;48.30;;;;;;5090690;28;20649;-57
2021/07/19 07:53:14;;;;;;;3.70;2.35;;;43.40;46.40;;;;;;5090909;28;20211;-57
2021/07/19 07:55:41;;;;;;;3.05;2.33;;;43.90;45.60;;;;;;5090561;28;20204;-58
2021/07/19 07:58:08;;;;;;;5.05;2.63;;;44.20;45.20;;;;;;5090422;28;20203;-56
2021/07/19 08:00:36;;;;;;;5.72;2.55;;;44.30;45.10;;;;;;5090462;28;20231;-57
2021/07/19 08:03:03;;;;;;;3.55;2.08;;;44.80;45.00;;;;;;5090462;28;20210;-57
2021/07/19 08:05:29;;;;;;;5.43;2.22;;;45.30;43.40;;;;;;5090431;28;20208;-57
2021/07/19 08:07:56;;;;;;;2.78;2.33;;;44.50;44.00;;;;;;5090670;28;20295;-56
2021/07/19 08:10:23;;;;;;;4.60;2.20;;;43.80;44.90;;;;;;5090346;28;20231;-56
2021/07/19 08:12:50;;;;;;;6.07;2.55;;;43.50;45.60;;;;;;5090482;28;20203;-57
2021/07/19 08:15:17;;;;;;;3.35;2.47;;;43.20;45.70;;;;;;5090304;28;20287;-56
2021/07/19 08:17:45;;;;;;;4.32;2.40;;;42.90;45.30;;;;;;5090323;28;20767;-60
2021/07/19 08:20:13;;;;;;;3.90;2.22;;;42.50;46.00;;;;;;5090581;28;20228;-57
2021/07/19 08:22:40;;;;;;;2.67;2.25;;;42.20;46.90;;;;;;5090515;28;20277;-57
2021/07/19 08:25:08;;;;;;;5.82;2.70;;;42.10;46.80;;;;;;5090377;28;20207;-56
2021/07/19 08:27:35;;;;;;;3.83;2.50;;;42.30;46.90;;;;;;5090293;28;20203;-57
2021/07/19 08:30:01;;;;;;;3.80;2.70;;;42.10;46.80;;;;;;5089939;28;20267;-56
2021/07/19 08:32:28;;;;;;;5.47;2.55;;;42.50;46.10;;;;;;5092643;28;20207;-56
2021/07/19 08:34:56;;;;;;;4.00;2.40;;;42.70;46.10;;;;;;5094071;28;20204;-56
2021/07/19 08:37:23;;;;;;;4.00;2.28;;;42.40;46.40;;;;;;5093860;28;20227;-58
2021/07/19 08:39:49;;;;;;;5.70;2.53;;;42.10;46.80;;;;;;5093654;28;20598;-56
2021/07/19 08:42:16;;;;;;;2.25;2.05;;;42.10;46.80;;;;;;5094034;28;20207;-56
2021/07/19 08:44:43;;;;;;;3.95;2.22;;;42.40;46.50;;;;;;5093613;28;20212;-56
2021/07/19 08:47:10;;;;;;;4.05;2.05;;;42.60;46.20;;;;;;5093847;28;20249;-56
2021/07/19 08:49:38;;;;;;;4.35;2.60;;;42.50;45.80;;;;;;5093646;28;20223;-56
2021/07/19 08:52:07;;;;;;;5.07;2.50;;;41.60;46.50;;;;;;5093474;28;20207;-56
2021/07/19 08:54:36;;;;;;;4.35;2.42;;;40.30;48.40;;;;;;5093578;28;20259;-57
2021/07/19 08:57:04;;;;;;;3.70;2.50;;;39.10;49.40;;;;;;5093873;28;20224;-55
2021/07/19 08:59:32;;;;;;;5.57;2.63;;;37.80;51.60;;;;;;5093528;28;20285;-56
2021/07/19 09:02:01;;;;;;;4.18;2.50;;;36.30;53.90;;;;;;5093873;28;20204;-55
2021/07/19 09:04:28;;;;;;;4.13;2.72;;;35.30;55.50;;;;;;5093841;28;20596;-57
2021/07/19 09:06:55;;;;;;;4.43;2.97;;;34.40;57.10;;;;;;5093659;28;20200;-56
2021/07/19 09:09:30;;;;;;;4.00;2.70;;;33.60;58.80;;;;;;5093291;28;20277;-55
2021/07/19 09:11:58;;;;;;;3.13;2.80;;;32.90;60.60;;;;;;5093647;28;20257;-56
2021/07/19 09:14:25;;;;;;;3.95;2.95;;;32.20;62.10;;;;;;5093377;28;20204;-56
2021/07/19 09:16:53;;;;;;;6.43;2.97;;;31.70;64.10;;;;;;5093215;28;20224;-57
2021/07/19 09:19:22;;;;;;;6.53;2.90;;;31.10;66.00;;;;;;5093609;28;20200;-58
2021/07/19 09:21:51;;;;;;;5.05;2.63;;;30.90;66.20;;;;;;5093559;28;20208;-59
2021/07/19 09:24:20;;;;;;;7.00;2.72;;;30.80;66.70;;;;;;5092667;28;20211;-56
2021/07/19 09:26:50;;;;;;;8.70;2.80;;;30.90;67.20;;;;;;5093314;28;20535;-55
2021/07/19 09:29:19;;;;;;;4.28;2.75;;;31.00;67.30;;;;;;5092747;28;20207;-56
2021/07/19 09:31:51;;;;;;;3.90;2.92;;;30.90;67.20;;;;;;5093845;28;20243;-56
2021/07/19 09:34:19;;;;;;;5.90;2.90;;;30.60;68.90;;;;;;5092816;28;20211;-56
2021/07/19 09:37:00;;;;;;;9.32;2.97;;;30.30;69.40;;;;;;5092776;28;20231;-56
2021/07/19 09:39:27;;;;;;;6.25;3.13;;;30.10;70.20;;;;;;5092833;28;20211;-56
2021/07/19 09:42:10;;;;;;;5.88;2.97;;;29.80;71.10;;;;;;5092768;28;20211;-55
2021/07/19 09:44:37;;;;;;;4.78;2.90;;;29.60;73.00;;;;;;5092575;28;20212;-57
2021/07/19 09:47:06;;;;;;;6.00;2.90;;;29.50;73.60;;;;;;5092502;28;20201;-57
2021/07/19 09:49:33;;;;;;;6.70;2.92;;;29.50;73.20;;;;;;5092570;28;20263;-56
2021/07/19 09:52:01;;;;;;;6.10;3.10;;;29.70;74.20;;;;;;5092697;28;20204;-57
2021/07/19 09:54:40;;;;;;;2.90;2.70;;;29.80;73.80;;;;;;5092456;28;20212;-57
2021/07/19 09:57:08;;;;;;;3.60;2.38;;;29.90;74.00;;;;;;5092420;28;20642;-56
2021/07/19 09:59:38;;;;;;;4.82;2.80;;;30.00;73.90;;;;;;5091654;28;20589;-56
2021/07/19 10:02:07;;;;;;;4.57;3.20;;;30.10;72.80;;;;;;5092226;28;20204;-57
2021/07/19 10:04:42;;;;;;;7.43;2.70;;;30.20;73.00;;;;;;5092179;28;20303;-56
2021/07/19 10:07:08;;;;;;;5.25;2.58;;;30.60;72.50;;;;;;5092592;28;20238;-56
2021/07/19 10:09:38;;;;;;;5.63;2.30;;;31.10;70.60;;;;;;5092251;28;20220;-57
2021/07/19 10:12:15;;;;;;;4.32;2.78;;;31.20;68.10;;;;;;5092586;28;20204;-57
2021/07/19 10:14:44;;;;;;;5.35;2.90;;;30.90;67.80;;;;;;5092505;28;20208;-56
2021/07/19 10:17:12;;;;;;;6.50;2.70;;;30.50;69.50;;;;;;5092314;28;20224;-58
2021/07/19 10:19:41;;;;;;;3.85;2.90;;;30.20;71.30;;;;;;5091894;28;20239;-56
2021/07/19 10:22:08;;;;;;;3.88;2.53;;;30.10;72.10;;;;;;5091911;28;20204;-57
2021/07/19 10:24:35;;;;;;;5.03;2.83;;;30.20;70.90;;;;;;5091584;28;20211;-56
2021/07/19 10:27:02;;;;;;;3.70;2.80;;;30.30;71.30;;;;;;5092285;28;20213;-57
2021/07/19 10:29:29;;;;;;;3.42;2.50;;;30.60;71.60;;;;;;5091551;28;20200;-56
2021/07/19 10:31:59;;;;;;;7.18;2.83;;;30.60;70.10;;;;;;5091895;28;20208;-56
2021/07/19 10:34:26;;;;;;;5.57;2.80;;;30.50;70.90;;;;;;5091590;28;20238;-56
2021/07/19 10:36:56;;;;;;;6.53;2.72;;;30.40;70.80;;;;;;5091737;28;20278;-55
2021/07/19 10:39:28;;;;;;;6.80;2.67;;;30.30;71.00;;;;;;5091609;28;20208;-55
2021/07/19 10:42:02;;;;;;;5.90;2.60;;;30.30;71.30;;;;;;5091599;28;20208;-56
2021/07/19 10:44:34;;;;;;;3.58;2.85;;;30.30;71.00;;;;;;5090975;28;20210;-55
2021/07/19 10:47:12;;;;;;;5.20;2.88;;;30.20;70.40;;;;;;5091553;28;20632;-55
2021/07/19 10:49:41;;;;;;;4.72;2.35;;;30.20;70.70;;;;;;5091119;28;20310;-56
2021/07/19 10:52:10;;;;;;;3.85;2.72;;;30.30;70.30;;;;;;5091527;28;20208;-58
2021/07/19 10:54:48;;;;;;;3.40;2.58;;;30.60;69.50;;;;;;5090612;28;20200;-55
2021/07/19 10:57:17;;;;;;;3.97;2.75;;;30.80;69.10;;;;;;5091257;28;20794;-55
2021/07/19 10:59:45;;;;;;;3.03;2.58;;;30.90;68.90;;;;;;5091117;28;20343;-57
2021/07/19 11:02:28;;;;;;;4.22;2.50;;;30.80;69.10;;;;;;5091088;28;20234;-54
2021/07/19 11:04:55;;;;;;;4.95;2.78;;;30.50;69.30;;;;;;5091138;28;20215;-55
2021/07/19 11:07:24;;;;;;;5.80;2.83;;;30.20;69.30;;;;;;5091084;28;20253;-55
2021/07/19 11:09:50;;;;;;;3.42;2.78;;;29.80;70.70;;;;;;5090944;28;20249;-56
2021/07/19 11:12:17;;;;;;;4.35;2.83;;;29.60;71.20;;;;;;5090869;28;20231;-57
2021/07/19 11:14:46;;;;;;;3.00;2.38;;;29.60;72.20;;;;;;5090703;28;20270;-55
2021/07/19 11:17:16;;;;;;;6.88;2.50;;;29.60;70.50;;;;;;5091154;28;20251;-56
2021/07/19 11:19:42;;;;;;;3.47;2.75;;;29.60;70.90;;;;;;5090994;28;20269;-56
2021/07/19 11:22:11;;;;;;;9.65;5.95;;;29.80;72.30;;;;;;5090933;28;20234;-55
2021/07/19 11:24:43;;;;;;;7.07;5.22;;;30.20;72.10;;;;;;5090910;28;20234;-56
2021/07/19 11:27:12;;;;;;;5.50;2.72;;;30.60;69.90;;;;;;5090797;28;20196;-58
2021/07/19 11:29:40;;;;;;;3.97;2.58;;;30.90;69.30;;;;;;5090818;28;20246;-56
2021/07/19 11:32:27;;;;;;;4.88;2.67;;;31.00;69.00;;;;;;5091128;28;20204;-55
2021/07/19 11:35:06;;;;;;;4.68;2.75;;;31.00;68.50;;;;;;5090752;28;20687;-55
2021/07/19 11:37:34;;;;;;;4.78;2.63;;;30.90;67.20;;;;;;5090935;28;20296;-55
2021/07/19 11:40:01;;;;;;;2.70;2.20;;;30.60;67.70;;;;;;5091234;28;20406;-54
2021/07/19 11:42:29;;;;;;;5.75;2.50;;;30.30;67.50;;;;;;5091069;28;20290;-55
2021/07/19 11:45:07;;;;;;;7.13;2.40;;;30.20;68.40;;;;;;5090821;28;20296;-56
2021/07/19 11:47:41;;;;;;;3.90;2.10;;;30.30;68.20;;;;;;5091208;28;20200;-57
2021/07/19 11:50:09;;;;;;;5.30;2.38;;;30.40;67.60;;;;;;5090630;28;20254;-55
2021/07/19 11:52:38;;;;;;;4.68;2.50;;;30.60;67.80;;;;;;5090697;28;20600;-55
2021/07/19 11:55:06;;;;;;;6.53;2.28;;;30.80;67.20;;;;;;5090812;28;20529;-54
2021/07/19 11:57:41;;;;;;;3.35;2.17;;;30.90;66.70;;;;;;5090728;28;20220;-56
2021/07/19 12:00:09;;;;;;;4.85;2.17;;;31.00;66.10;;;;;;5090430;28;20281;-54
2021/07/19 12:02:37;;;;;;;4.13;2.40;;;31.00;66.20;;;;;;5090504;28;20215;-56
2021/07/19 12:05:05;;;;;;;3.47;1.85;;;31.00;66.10;;;;;;5090575;28;20208;-57
2021/07/19 12:07:31;;;;;;;3.75;1.90;;;31.10;65.60;;;;;;5094468;28;20200;-55
2021/07/19 12:09:59;;;;;;;4.47;2.33;;;31.10;62.70;;;;;;5094430;28;20281;-57
2021/07/19 12:12:26;;;;;;;2.10;1.83;;;31.10;62.20;;;;;;5094142;28;20218;-56
2021/07/19 12:14:56;;;;;;;6.43;2.05;;;31.20;62.70;;;;;;5093892;28;20212;-55
2021/07/19 12:17:26;;;;;;;3.38;1.88;;;31.40;62.90;;;;;;5094374;28;20254;-55
2021/07/19 12:19:55;;;;;;;4.80;2.05;;;31.60;62.40;;;;;;5094036;28;20778;-56
2021/07/19 12:22:22;;;;;;;4.00;2.10;;;31.80;62.30;;;;;;5094441;28;20204;-56
2021/07/19 12:24:52;;;;;;;6.03;1.88;;;31.50;63.10;;;;;;5094224;28;20208;-62
2021/07/19 12:27:19;;;;;;;6.57;2.20;;;31.50;62.50;;;;;;5094166;28;20298;-58
2021/07/19 12:29:46;;;;;;;3.90;1.98;;;31.60;62.60;;;;;;5093726;28;20621;-57
2021/07/19 12:32:12;;;;;;;6.15;1.98;;;31.80;61.80;;;;;;5093893;28;20672;-54
2021/07/19 12:34:41;;;;;;;5.35;1.98;;;32.10;61.50;;;;;;5093807;28;20204;-56
2021/07/19 12:37:11;;;;;;;5.78;2.13;;;32.40;61.50;;;;;;5093826;28;20299;-55
2021/07/19 12:39:41;;;;;;;3.90;2.30;;;32.50;61.10;;;;;;5086009;28;20511;-57
2021/07/19 12:42:10;;;;;;;5.03;2.08;;;32.30;61.10;;;;;;5073123;28;20296;-60
2021/07/19 12:44:37;;;;;;;3.20;1.88;;;31.90;60.60;;;;;;5073082;28;20212;-59
2021/07/19 12:47:05;;;;;;;3.15;1.90;;;31.60;59.10;;;;;;5073389;28;20215;-59
2021/07/19 12:49:34;;;;;;;2.67;1.80;;;31.20;59.60;;;;;;5072631;28;20232;-58
2021/07/19 12:52:03;;;;;;;4.35;1.70;;;31.00;59.90;;;;;;5073191;28;20215;-59
2021/07/19 12:54:31;;;;;;;2.83;1.92;;;30.90;60.90;;;;;;5073147;28;20215;-60